sensor_id;sensor_type;location;lat;lon;timestamp;P1;durP1;ratioP1;P2;durP2;ratioP2
47896;SDS011;39629;51.400;5.494;2023-03-20T00:04:51;9.27;;;4.32;;
47896;SDS011;39629;51.400;5.494;2023-03-20T00:09:54;10.20;;;4.35;;
47896;SDS011;39629;51.400;5.494;2023-03-20T00:14:57;9.97;;;4.17;;
47896;SDS011;39629;51.400;5.494;2023-03-20T00:20:01;10.23;;;4.38;;
47896;SDS011;39629;51.400;5.494;2023-03-20T00:25:05;9.93;;;4.13;;
47896;SDS011;39629;51.400;5.494;2023-03-20T00:30:18;9.60;;;4.40;;
47896;SDS011;39629;51.400;5.494;2023-03-20T00:35:25;9.10;;;4.32;;
47896;SDS011;39629;51.400;5.494;2023-03-20T00:40:29;8.90;;;4.28;;
47896;SDS011;39629;51.400;5.494;2023-03-20T00:45:32;11.13;;;4.53;;
47896;SDS011;39629;51.400;5.494;2023-03-20T00:50:35;9.00;;;3.97;;
47896;SDS011;39629;51.400;5.494;2023-03-20T00:55:40;10.63;;;5.13;;
47896;SDS011;39629;51.400;5.494;2023-03-20T01:00:43;10.88;;;4.85;;
47896;SDS011;39629;51.400;5.494;2023-03-20T01:05:47;13.05;;;4.85;;
47896;SDS011;39629;51.400;5.494;2023-03-20T01:10:52;10.53;;;4.30;;
47896;SDS011;39629;51.400;5.494;2023-03-20T01:15:56;12.48;;;4.65;;
47896;SDS011;39629;51.400;5.494;2023-03-20T01:20:58;10.07;;;4.43;;
47896;SDS011;39629;51.400;5.494;2023-03-20T01:26:01;14.00;;;5.38;;
47896;SDS011;39629;51.400;5.494;2023-03-20T01:31:03;12.10;;;5.22;;
47896;SDS011;39629;51.400;5.494;2023-03-20T01:36:07;12.98;;;6.07;;
47896;SDS011;39629;51.400;5.494;2023-03-20T01:41:12;13.30;;;6.18;;
47896;SDS011;39629;51.400;5.494;2023-03-20T01:46:18;12.90;;;5.35;;
47896;SDS011;39629;51.400;5.494;2023-03-20T01:51:25;12.30;;;5.07;;
47896;SDS011;39629;51.400;5.494;2023-03-20T01:56:34;15.85;;;6.18;;
47896;SDS011;39629;51.400;5.494;2023-03-20T02:01:39;13.63;;;5.95;;
47896;SDS011;39629;51.400;5.494;2023-03-20T02:06:43;12.70;;;5.35;;
47896;SDS011;39629;51.400;5.494;2023-03-20T02:11:59;13.20;;;5.60;;
47896;SDS011;39629;51.400;5.494;2023-03-20T02:17:02;15.00;;;6.15;;
47896;SDS011;39629;51.400;5.494;2023-03-20T02:22:28;15.20;;;6.10;;
47896;SDS011;39629;51.400;5.494;2023-03-20T02:44:27;17.23;;;6.38;;
47896;SDS011;39629;51.400;5.494;2023-03-20T02:49:40;16.00;;;6.28;;
47896;SDS011;39629;51.400;5.494;2023-03-20T02:54:55;17.02;;;6.38;;
47896;SDS011;39629;51.400;5.494;2023-03-20T03:00:08;15.55;;;6.05;;
47896;SDS011;39629;51.400;5.494;2023-03-20T03:05:15;16.85;;;5.78;;
47896;SDS011;39629;51.400;5.494;2023-03-20T03:10:24;15.55;;;6.40;;
47896;SDS011;39629;51.400;5.494;2023-03-20T03:15:30;14.13;;;5.13;;
47896;SDS011;39629;51.400;5.494;2023-03-20T03:20:35;15.60;;;5.60;;
47896;SDS011;39629;51.400;5.494;2023-03-20T03:25:40;18.83;;;6.35;;
47896;SDS011;39629;51.400;5.494;2023-03-20T03:30:44;14.80;;;5.85;;
47896;SDS011;39629;51.400;5.494;2023-03-20T03:35:46;15.90;;;5.93;;
47896;SDS011;39629;51.400;5.494;2023-03-20T03:40:51;16.00;;;6.05;;
47896;SDS011;39629;51.400;5.494;2023-03-20T03:46:03;15.35;;;5.85;;
47896;SDS011;39629;51.400;5.494;2023-03-20T03:51:10;15.30;;;5.70;;
47896;SDS011;39629;51.400;5.494;2023-03-20T03:56:31;13.30;;;5.70;;
47896;SDS011;39629;51.400;5.494;2023-03-20T04:01:35;14.80;;;5.95;;
47896;SDS011;39629;51.400;5.494;2023-03-20T04:06:38;13.30;;;5.38;;
47896;SDS011;39629;51.400;5.494;2023-03-20T04:11:43;14.18;;;5.80;;
47896;SDS011;39629;51.400;5.494;2023-03-20T04:16:49;15.40;;;5.63;;
47896;SDS011;39629;51.400;5.494;2023-03-20T04:21:52;14.05;;;5.68;;
47896;SDS011;39629;51.400;5.494;2023-03-20T04:26:55;14.10;;;6.20;;
47896;SDS011;39629;51.400;5.494;2023-03-20T04:31:57;13.18;;;5.38;;
47896;SDS011;39629;51.400;5.494;2023-03-20T04:37:10;15.10;;;5.53;;
47896;SDS011;39629;51.400;5.494;2023-03-20T04:42:30;11.77;;;5.20;;
47896;SDS011;39629;51.400;5.494;2023-03-20T04:47:35;14.40;;;5.75;;
47896;SDS011;39629;51.400;5.494;2023-03-20T04:52:38;12.65;;;6.20;;
47896;SDS011;39629;51.400;5.494;2023-03-20T04:57:42;14.00;;;5.82;;
47896;SDS011;39629;51.400;5.494;2023-03-20T05:07:48;13.23;;;4.95;;
47896;SDS011;39629;51.400;5.494;2023-03-20T05:12:59;15.57;;;5.50;;
47896;SDS011;39629;51.400;5.494;2023-03-20T05:18:16;12.13;;;5.80;;
47896;SDS011;39629;51.400;5.494;2023-03-20T05:23:41;14.27;;;5.13;;
47896;SDS011;39629;51.400;5.494;2023-03-20T05:29:07;14.63;;;5.78;;
47896;SDS011;39629;51.400;5.494;2023-03-20T05:34:38;13.70;;;5.07;;
47896;SDS011;39629;51.400;5.494;2023-03-20T05:39:53;13.32;;;5.38;;
47896;SDS011;39629;51.400;5.494;2023-03-20T05:45:19;12.75;;;5.53;;
47896;SDS011;39629;51.400;5.494;2023-03-20T05:56:04;12.13;;;4.95;;
47896;SDS011;39629;51.400;5.494;2023-03-20T06:01:35;12.38;;;5.35;;
47896;SDS011;39629;51.400;5.494;2023-03-20T06:06:59;10.80;;;4.75;;
47896;SDS011;39629;51.400;5.494;2023-03-20T06:12:02;14.38;;;5.22;;
47896;SDS011;39629;51.400;5.494;2023-03-20T06:17:06;11.20;;;5.15;;
47896;SDS011;39629;51.400;5.494;2023-03-20T06:22:08;12.43;;;5.30;;
47896;SDS011;39629;51.400;5.494;2023-03-20T06:27:10;12.10;;;4.97;;
47896;SDS011;39629;51.400;5.494;2023-03-20T06:32:14;13.75;;;5.13;;
47896;SDS011;39629;51.400;5.494;2023-03-20T06:37:17;12.23;;;4.93;;
47896;SDS011;39629;51.400;5.494;2023-03-20T06:42:20;13.40;;;5.45;;
47896;SDS011;39629;51.400;5.494;2023-03-20T06:47:24;12.88;;;5.22;;
47896;SDS011;39629;51.400;5.494;2023-03-20T06:52:26;12.70;;;4.80;;
47896;SDS011;39629;51.400;5.494;2023-03-20T06:57:51;12.73;;;4.97;;
47896;SDS011;39629;51.400;5.494;2023-03-20T07:02:54;15.82;;;5.35;;
47896;SDS011;39629;51.400;5.494;2023-03-20T07:07:56;11.77;;;4.57;;
47896;SDS011;39629;51.400;5.494;2023-03-20T07:13:00;14.13;;;5.85;;
47896;SDS011;39629;51.400;5.494;2023-03-20T07:18:03;13.15;;;4.95;;
47896;SDS011;39629;51.400;5.494;2023-03-20T07:23:05;15.80;;;5.05;;
47896;SDS011;39629;51.400;5.494;2023-03-20T07:28:09;13.90;;;5.07;;
47896;SDS011;39629;51.400;5.494;2023-03-20T07:33:16;14.25;;;5.10;;
47896;SDS011;39629;51.400;5.494;2023-03-20T07:38:18;8.40;;;3.88;;
47896;SDS011;39629;51.400;5.494;2023-03-20T07:43:31;11.70;;;4.00;;
47896;SDS011;39629;51.400;5.494;2023-03-20T07:48:34;13.10;;;4.63;;
47896;SDS011;39629;51.400;5.494;2023-03-20T07:53:36;11.57;;;4.25;;
47896;SDS011;39629;51.400;5.494;2023-03-20T07:58:37;11.40;;;3.63;;
47896;SDS011;39629;51.400;5.494;2023-03-20T08:03:40;13.32;;;4.22;;
47896;SDS011;39629;51.400;5.494;2023-03-20T08:08:42;10.23;;;3.88;;
47896;SDS011;39629;51.400;5.494;2023-03-20T08:13:44;11.13;;;3.45;;
47896;SDS011;39629;51.400;5.494;2023-03-20T08:18:47;15.30;;;3.90;;
47896;SDS011;39629;51.400;5.494;2023-03-20T08:23:49;11.07;;;3.30;;
47896;SDS011;39629;51.400;5.494;2023-03-20T08:28:51;9.07;;;2.90;;
47896;SDS011;39629;51.400;5.494;2023-03-20T08:33:54;9.93;;;3.58;;
47896;SDS011;39629;51.400;5.494;2023-03-20T08:38:56;8.60;;;2.97;;
47896;SDS011;39629;51.400;5.494;2023-03-20T08:43:58;9.65;;;3.45;;
47896;SDS011;39629;51.400;5.494;2023-03-20T08:49:02;10.55;;;3.10;;
47896;SDS011;39629;51.400;5.494;2023-03-20T08:54:04;11.30;;;3.20;;
47896;SDS011;39629;51.400;5.494;2023-03-20T08:59:06;9.43;;;2.92;;
47896;SDS011;39629;51.400;5.494;2023-03-20T09:04:09;9.88;;;2.60;;
47896;SDS011;39629;51.400;5.494;2023-03-20T09:09:11;7.60;;;2.40;;
47896;SDS011;39629;51.400;5.494;2023-03-20T09:14:14;9.70;;;2.85;;
47896;SDS011;39629;51.400;5.494;2023-03-20T09:19:17;8.52;;;2.63;;
47896;SDS011;39629;51.400;5.494;2023-03-20T09:24:19;7.25;;;2.88;;
47896;SDS011;39629;51.400;5.494;2023-03-20T09:29:21;8.57;;;2.97;;
47896;SDS011;39629;51.400;5.494;2023-03-20T09:34:24;10.50;;;3.25;;
47896;SDS011;39629;51.400;5.494;2023-03-20T09:39:25;10.60;;;3.00;;
47896;SDS011;39629;51.400;5.494;2023-03-20T09:44:33;9.90;;;2.92;;
47896;SDS011;39629;51.400;5.494;2023-03-20T09:49:47;14.15;;;2.80;;
47896;SDS011;39629;51.400;5.494;2023-03-20T09:54:59;9.07;;;2.83;;
47896;SDS011;39629;51.400;5.494;2023-03-20T10:00:05;11.73;;;3.65;;
47896;SDS011;39629;51.400;5.494;2023-03-20T10:05:16;7.38;;;3.03;;
47896;SDS011;39629;51.400;5.494;2023-03-20T10:10:21;7.82;;;2.90;;
47896;SDS011;39629;51.400;5.494;2023-03-20T10:15:35;11.27;;;3.00;;
47896;SDS011;39629;51.400;5.494;2023-03-20T10:20:45;10.25;;;2.67;;
47896;SDS011;39629;51.400;5.494;2023-03-20T10:25:51;9.55;;;3.78;;
47896;SDS011;39629;51.400;5.494;2023-03-20T10:30:58;14.18;;;3.30;;
47896;SDS011;39629;51.400;5.494;2023-03-20T10:36:24;7.38;;;3.10;;
47896;SDS011;39629;51.400;5.494;2023-03-20T10:41:38;10.48;;;3.00;;
47896;SDS011;39629;51.400;5.494;2023-03-20T10:46:45;9.93;;;3.03;;
47896;SDS011;39629;51.400;5.494;2023-03-20T10:51:52;8.60;;;2.70;;
47896;SDS011;39629;51.400;5.494;2023-03-20T10:56:59;8.90;;;2.70;;
47896;SDS011;39629;51.400;5.494;2023-03-20T11:07:12;6.22;;;2.45;;
47896;SDS011;39629;51.400;5.494;2023-03-20T11:12:22;6.72;;;2.63;;
47896;SDS011;39629;51.400;5.494;2023-03-20T11:17:24;8.18;;;2.53;;
47896;SDS011;39629;51.400;5.494;2023-03-20T11:22:30;10.10;;;2.35;;
47896;SDS011;39629;51.400;5.494;2023-03-20T11:27:32;8.77;;;2.53;;
47896;SDS011;39629;51.400;5.494;2023-03-20T11:32:38;6.77;;;2.47;;
47896;SDS011;39629;51.400;5.494;2023-03-20T11:37:44;10.55;;;2.70;;
47896;SDS011;39629;51.400;5.494;2023-03-20T11:42:51;6.15;;;2.50;;
47896;SDS011;39629;51.400;5.494;2023-03-20T11:47:54;8.65;;;2.50;;
47896;SDS011;39629;51.400;5.494;2023-03-20T11:52:58;7.72;;;2.20;;
47896;SDS011;39629;51.400;5.494;2023-03-20T11:58:02;6.50;;;2.70;;
47896;SDS011;39629;51.400;5.494;2023-03-20T12:03:19;8.65;;;2.75;;
47896;SDS011;39629;51.400;5.494;2023-03-20T12:08:39;6.88;;;2.33;;
47896;SDS011;39629;51.400;5.494;2023-03-20T12:13:46;8.48;;;2.47;;
47896;SDS011;39629;51.400;5.494;2023-03-20T12:18:51;6.85;;;2.75;;
47896;SDS011;39629;51.400;5.494;2023-03-20T12:23:58;11.00;;;3.10;;
47896;SDS011;39629;51.400;5.494;2023-03-20T12:29:04;8.52;;;2.97;;
47896;SDS011;39629;51.400;5.494;2023-03-20T12:34:11;10.60;;;3.38;;
47896;SDS011;39629;51.400;5.494;2023-03-20T12:39:17;10.48;;;3.40;;
47896;SDS011;39629;51.400;5.494;2023-03-20T12:44:31;9.18;;;3.20;;
47896;SDS011;39629;51.400;5.494;2023-03-20T12:49:41;7.65;;;3.13;;
47896;SDS011;39629;51.400;5.494;2023-03-20T12:54:58;7.80;;;3.13;;
47896;SDS011;39629;51.400;5.494;2023-03-20T13:00:13;10.10;;;2.65;;
47896;SDS011;39629;51.400;5.494;2023-03-20T13:05:24;4.80;;;2.20;;
47896;SDS011;39629;51.400;5.494;2023-03-20T13:10:35;5.65;;;2.80;;
47896;SDS011;39629;51.400;5.494;2023-03-20T13:15:47;9.13;;;2.92;;
47896;SDS011;39629;51.400;5.494;2023-03-20T13:20:59;9.05;;;3.03;;
47896;SDS011;39629;51.400;5.494;2023-03-20T13:26:09;8.30;;;3.08;;
47896;SDS011;39629;51.400;5.494;2023-03-20T13:31:22;9.70;;;2.92;;
47896;SDS011;39629;51.400;5.494;2023-03-20T13:36:37;9.38;;;3.30;;
47896;SDS011;39629;51.400;5.494;2023-03-20T13:41:47;11.32;;;3.17;;
47896;SDS011;39629;51.400;5.494;2023-03-20T13:46:50;11.75;;;3.20;;
47896;SDS011;39629;51.400;5.494;2023-03-20T13:51:55;7.90;;;2.30;;
47896;SDS011;39629;51.400;5.494;2023-03-20T13:57:08;6.00;;;2.50;;
47896;SDS011;39629;51.400;5.494;2023-03-20T14:02:21;8.75;;;2.60;;
47896;SDS011;39629;51.400;5.494;2023-03-20T14:07:35;8.95;;;2.80;;
47896;SDS011;39629;51.400;5.494;2023-03-20T14:12:39;9.55;;;2.17;;
47896;SDS011;39629;51.400;5.494;2023-03-20T14:17:41;7.63;;;2.10;;
47896;SDS011;39629;51.400;5.494;2023-03-20T14:22:44;8.48;;;2.92;;
47896;SDS011;39629;51.400;5.494;2023-03-20T14:27:53;6.87;;;2.30;;
47896;SDS011;39629;51.400;5.494;2023-03-20T14:32:58;9.57;;;2.88;;
47896;SDS011;39629;51.400;5.494;2023-03-20T14:38:08;7.68;;;2.30;;
47896;SDS011;39629;51.400;5.494;2023-03-20T14:43:23;7.47;;;2.10;;
47896;SDS011;39629;51.400;5.494;2023-03-20T14:48:36;8.75;;;2.15;;
47896;SDS011;39629;51.400;5.494;2023-03-20T14:53:48;6.00;;;2.10;;
47896;SDS011;39629;51.400;5.494;2023-03-20T14:58:57;7.90;;;2.10;;
47896;SDS011;39629;51.400;5.494;2023-03-20T15:04:04;6.57;;;2.17;;
47896;SDS011;39629;51.400;5.494;2023-03-20T15:09:08;6.20;;;2.45;;
47896;SDS011;39629;51.400;5.494;2023-03-20T15:14:17;9.98;;;2.70;;
47896;SDS011;39629;51.400;5.494;2023-03-20T15:19:21;6.93;;;1.83;;
47896;SDS011;39629;51.400;5.494;2023-03-20T15:24:24;5.10;;;2.08;;
47896;SDS011;39629;51.400;5.494;2023-03-20T15:29:28;11.48;;;2.40;;
47896;SDS011;39629;51.400;5.494;2023-03-20T15:34:32;10.05;;;2.60;;
47896;SDS011;39629;51.400;5.494;2023-03-20T15:39:40;9.18;;;2.25;;
47896;SDS011;39629;51.400;5.494;2023-03-20T15:44:45;7.95;;;2.55;;
47896;SDS011;39629;51.400;5.494;2023-03-20T15:49:48;6.78;;;2.53;;
47896;SDS011;39629;51.400;5.494;2023-03-20T15:54:53;8.23;;;2.15;;
47896;SDS011;39629;51.400;5.494;2023-03-20T15:59:57;11.90;;;2.30;;
47896;SDS011;39629;51.400;5.494;2023-03-20T16:04:59;7.75;;;2.30;;
47896;SDS011;39629;51.400;5.494;2023-03-20T16:10:00;4.43;;;2.10;;
47896;SDS011;39629;51.400;5.494;2023-03-20T16:15:04;7.70;;;2.17;;
47896;SDS011;39629;51.400;5.494;2023-03-20T16:20:08;9.88;;;2.40;;
47896;SDS011;39629;51.400;5.494;2023-03-20T16:25:14;6.88;;;2.03;;
47896;SDS011;39629;51.400;5.494;2023-03-20T16:30:21;7.03;;;2.28;;
47896;SDS011;39629;51.400;5.494;2023-03-20T16:35:26;11.38;;;2.28;;
47896;SDS011;39629;51.400;5.494;2023-03-20T16:40:31;7.35;;;2.15;;
47896;SDS011;39629;51.400;5.494;2023-03-20T16:45:37;7.57;;;2.08;;
47896;SDS011;39629;51.400;5.494;2023-03-20T16:50:42;9.57;;;2.22;;
47896;SDS011;39629;51.400;5.494;2023-03-20T16:55:48;9.85;;;2.65;;
47896;SDS011;39629;51.400;5.494;2023-03-20T17:00:56;7.93;;;2.60;;
47896;SDS011;39629;51.400;5.494;2023-03-20T17:06:03;7.95;;;2.20;;
47896;SDS011;39629;51.400;5.494;2023-03-20T17:11:09;7.93;;;2.55;;
47896;SDS011;39629;51.400;5.494;2023-03-20T17:16:15;9.43;;;2.70;;
47896;SDS011;39629;51.400;5.494;2023-03-20T17:21:19;10.98;;;2.83;;
47896;SDS011;39629;51.400;5.494;2023-03-20T17:26:20;9.27;;;2.83;;
47896;SDS011;39629;51.400;5.494;2023-03-20T17:31:24;8.23;;;2.70;;
47896;SDS011;39629;51.400;5.494;2023-03-20T17:36:26;10.10;;;3.10;;
47896;SDS011;39629;51.400;5.494;2023-03-20T17:41:30;8.98;;;3.20;;
47896;SDS011;39629;51.400;5.494;2023-03-20T17:46:33;8.05;;;3.10;;
47896;SDS011;39629;51.400;5.494;2023-03-20T17:51:34;11.95;;;3.30;;
47896;SDS011;39629;51.400;5.494;2023-03-20T17:56:36;13.85;;;3.80;;
47896;SDS011;39629;51.400;5.494;2023-03-20T18:01:42;9.35;;;3.70;;
47896;SDS011;39629;51.400;5.494;2023-03-20T18:06:44;11.02;;;3.90;;
47896;SDS011;39629;51.400;5.494;2023-03-20T18:11:45;12.75;;;3.92;;
47896;SDS011;39629;51.400;5.494;2023-03-20T18:16:48;12.93;;;4.00;;
47896;SDS011;39629;51.400;5.494;2023-03-20T18:21:50;10.98;;;3.70;;
47896;SDS011;39629;51.400;5.494;2023-03-20T18:26:52;11.15;;;4.15;;
47896;SDS011;39629;51.400;5.494;2023-03-20T18:31:56;10.27;;;3.50;;
47896;SDS011;39629;51.400;5.494;2023-03-20T18:36:57;16.13;;;4.40;;
47896;SDS011;39629;51.400;5.494;2023-03-20T18:41:59;9.85;;;3.83;;
47896;SDS011;39629;51.400;5.494;2023-03-20T18:47:02;8.02;;;3.38;;
47896;SDS011;39629;51.400;5.494;2023-03-20T18:52:04;9.68;;;4.45;;
47896;SDS011;39629;51.400;5.494;2023-03-20T18:57:07;9.07;;;4.35;;
47896;SDS011;39629;51.400;5.494;2023-03-20T19:02:13;12.30;;;5.15;;
47896;SDS011;39629;51.400;5.494;2023-03-20T19:07:14;10.02;;;4.75;;
47896;SDS011;39629;51.400;5.494;2023-03-20T19:12:16;13.32;;;5.50;;
47896;SDS011;39629;51.400;5.494;2023-03-20T19:17:19;13.48;;;4.63;;
47896;SDS011;39629;51.400;5.494;2023-03-20T19:22:20;11.85;;;5.13;;
47896;SDS011;39629;51.400;5.494;2023-03-20T19:27:22;16.75;;;5.70;;
47896;SDS011;39629;51.400;5.494;2023-03-20T19:32:25;15.93;;;5.43;;
47896;SDS011;39629;51.400;5.494;2023-03-20T19:37:26;10.05;;;5.55;;
47896;SDS011;39629;51.400;5.494;2023-03-20T19:42:28;11.98;;;4.80;;
47896;SDS011;39629;51.400;5.494;2023-03-20T19:47:31;17.25;;;4.47;;
47896;SDS011;39629;51.400;5.494;2023-03-20T19:52:32;14.50;;;5.47;;
47896;SDS011;39629;51.400;5.494;2023-03-20T19:57:35;14.90;;;5.15;;
47896;SDS011;39629;51.400;5.494;2023-03-20T20:02:38;13.70;;;4.43;;
47896;SDS011;39629;51.400;5.494;2023-03-20T20:07:40;13.80;;;5.07;;
47896;SDS011;39629;51.400;5.494;2023-03-20T20:12:42;11.25;;;4.85;;
47896;SDS011;39629;51.400;5.494;2023-03-20T20:17:45;13.43;;;5.30;;
47896;SDS011;39629;51.400;5.494;2023-03-20T20:22:47;12.67;;;5.07;;
47896;SDS011;39629;51.400;5.494;2023-03-20T20:27:50;15.20;;;4.50;;
47896;SDS011;39629;51.400;5.494;2023-03-20T20:32:53;13.48;;;5.30;;
47896;SDS011;39629;51.400;5.494;2023-03-20T20:37:54;14.35;;;5.55;;
47896;SDS011;39629;51.400;5.494;2023-03-20T20:42:56;10.63;;;4.93;;
47896;SDS011;39629;51.400;5.494;2023-03-20T20:48:00;13.50;;;5.22;;
47896;SDS011;39629;51.400;5.494;2023-03-20T20:58:04;15.30;;;5.30;;
47896;SDS011;39629;51.400;5.494;2023-03-20T21:03:07;17.23;;;5.30;;
47896;SDS011;39629;51.400;5.494;2023-03-20T21:08:09;13.68;;;5.43;;
47896;SDS011;39629;51.400;5.494;2023-03-20T21:13:13;18.70;;;6.07;;
47896;SDS011;39629;51.400;5.494;2023-03-20T21:18:16;10.10;;;4.93;;
47896;SDS011;39629;51.400;5.494;2023-03-20T21:23:17;14.50;;;5.60;;
47896;SDS011;39629;51.400;5.494;2023-03-20T21:28:19;11.77;;;4.95;;
47896;SDS011;39629;51.400;5.494;2023-03-20T21:33:22;12.40;;;4.93;;
47896;SDS011;39629;51.400;5.494;2023-03-20T21:38:24;13.07;;;5.32;;
47896;SDS011;39629;51.400;5.494;2023-03-20T21:43:26;13.02;;;4.72;;
47896;SDS011;39629;51.400;5.494;2023-03-20T21:48:29;14.80;;;5.32;;
47896;SDS011;39629;51.400;5.494;2023-03-20T21:53:30;12.77;;;5.80;;
47896;SDS011;39629;51.400;5.494;2023-03-20T21:58:32;12.27;;;4.53;;
47896;SDS011;39629;51.400;5.494;2023-03-20T22:03:35;12.18;;;4.57;;
47896;SDS011;39629;51.400;5.494;2023-03-20T22:08:37;8.00;;;4.70;;
47896;SDS011;39629;51.400;5.494;2023-03-20T22:13:39;11.73;;;2.30;;
47896;SDS011;39629;51.400;5.494;2023-03-20T22:18:42;7.97;;;4.10;;
47896;SDS011;39629;51.400;5.494;2023-03-20T22:23:44;10.25;;;4.25;;
47896;SDS011;39629;51.400;5.494;2023-03-20T22:28:46;10.23;;;3.72;;
47896;SDS011;39629;51.400;5.494;2023-03-20T22:33:49;9.38;;;4.38;;
47896;SDS011;39629;51.400;5.494;2023-03-20T22:38:50;12.00;;;4.50;;
47896;SDS011;39629;51.400;5.494;2023-03-20T22:43:52;9.85;;;3.97;;
47896;SDS011;39629;51.400;5.494;2023-03-20T22:48:55;12.40;;;4.45;;
47896;SDS011;39629;51.400;5.494;2023-03-20T22:53:57;9.95;;;4.38;;
47896;SDS011;39629;51.400;5.494;2023-03-20T22:58:58;11.20;;;5.05;;
47896;SDS011;39629;51.400;5.494;2023-03-20T23:04:01;11.43;;;5.03;;
47896;SDS011;39629;51.400;5.494;2023-03-20T23:09:03;9.60;;;4.40;;
47896;SDS011;39629;51.400;5.494;2023-03-20T23:14:04;14.05;;;4.90;;
47896;SDS011;39629;51.400;5.494;2023-03-20T23:19:08;16.17;;;5.88;;
47896;SDS011;39629;51.400;5.494;2023-03-20T23:24:09;16.70;;;6.75;;
47896;SDS011;39629;51.400;5.494;2023-03-20T23:29:11;16.08;;;5.47;;
47896;SDS011;39629;51.400;5.494;2023-03-20T23:34:14;15.65;;;5.85;;
47896;SDS011;39629;51.400;5.494;2023-03-20T23:39:15;10.50;;;5.30;;
47896;SDS011;39629;51.400;5.494;2023-03-20T23:44:18;12.52;;;5.13;;
47896;SDS011;39629;51.400;5.494;2023-03-20T23:49:22;10.25;;;4.88;;
47896;SDS011;39629;51.400;5.494;2023-03-20T23:54:24;11.50;;;4.32;;
47896;SDS011;39629;51.400;5.494;2023-03-20T23:59:25;10.90;;;4.28;;
